Time;durP1;ratioP1;P1;durP2;ratioP2;P2;SDS_P1;SDS_P2;PMS_P1;PMS_P2;Temp;Humidity;BMP_temperature;BMP_pressure;BME280_temperature;BME280_humidity;BME280_pressure;Samples;Min_cycle;Max_cycle;Signal;HPM_P1;HPM_P2
2023/03/31 00:02:14;;;;;;;9.82;3.17;;;;;;;9.64;100.00;100239.34;5222595;28;20061;-66
2023/03/31 00:04:51;;;;;;;10.85;2.70;;;;;;;9.68;100.00;100236.28;5231374;28;20064;-66
2023/03/31 00:07:22;;;;;;;9.02;2.90;;;;;;;9.70;100.00;100226.34;5225769;28;20334;-66
2023/03/31 00:09:54;;;;;;;10.13;2.90;;;;;;;9.65;100.00;100209.91;5227678;28;20538;-66
2023/03/31 00:12:25;;;;;;;8.30;2.88;;;;;;;9.63;100.00;100209.19;5230707;28;20036;-66
2023/03/31 00:14:57;;;;;;;8.73;2.88;;;;;;;9.64;100.00;100204.72;5233662;28;20399;-66
2023/03/31 00:17:31;;;;;;;9.38;2.72;;;;;;;9.61;100.00;100198.66;5240931;28;20032;-66
2023/03/31 00:20:04;;;;;;;9.98;2.35;;;;;;;9.60;100.00;100198.78;5234858;28;20025;-66
2023/03/31 00:22:37;;;;;;;10.30;2.83;;;;;;;9.59;100.00;100184.63;5227921;28;20434;-66
2023/03/31 00:25:09;;;;;;;8.68;2.50;;;;;;;9.58;100.00;100179.44;5230281;28;20028;-66
2023/03/31 00:27:44;;;;;;;10.48;2.78;;;;;;;9.61;100.00;100180.03;5231069;28;20033;-66
2023/03/31 00:30:15;;;;;;;7.78;2.38;;;;;;;9.57;100.00;100167.94;5218712;28;20041;-66
2023/03/31 00:32:47;;;;;;;6.78;2.45;;;;;;;9.53;100.00;100165.66;5227233;28;20041;-66
2023/03/31 00:35:18;;;;;;;9.32;2.15;;;;;;;9.52;100.00;100163.97;5229516;28;20021;-66
2023/03/31 00:37:50;;;;;;;9.68;2.50;;;;;;;9.51;100.00;100156.94;5224894;28;20025;-66
2023/03/31 00:40:21;;;;;;;9.02;2.38;;;;;;;9.50;100.00;100150.78;5228026;28;20033;-66
2023/03/31 00:42:53;;;;;;;10.98;2.65;;;;;;;9.47;100.00;100151.00;5231006;28;20747;-66
2023/03/31 00:45:27;;;;;;;7.10;2.20;;;;;;;9.48;100.00;100150.06;5232611;28;20034;-66
2023/03/31 00:48:10;;;;;;;11.32;2.72;;;;;;;9.47;100.00;100137.72;5236910;28;20022;-66
2023/03/31 00:50:52;;;;;;;9.30;2.35;;;;;;;9.47;100.00;100136.88;5235676;28;20102;-66
2023/03/31 00:53:30;;;;;;;11.02;2.38;;;;;;;9.45;100.00;100134.31;5236936;28;20063;-66
2023/03/31 00:56:08;;;;;;;11.60;2.47;;;;;;;9.49;100.00;100127.81;5235218;28;20016;-67
2023/03/31 00:58:44;;;;;;;8.45;2.17;;;;;;;9.49;100.00;100127.81;5232723;28;20112;-67
2023/03/31 01:01:19;;;;;;;10.85;2.80;;;;;;;9.53;100.00;100118.56;5243483;28;20484;-66
2023/03/31 01:03:52;;;;;;;6.88;1.98;;;;;;;9.49;100.00;100114.47;5242657;28;20233;-67
2023/03/31 01:06:24;;;;;;;8.35;2.10;;;;;;;9.53;100.00;100113.25;5232631;28;20025;-67
2023/03/31 01:08:56;;;;;;;10.88;2.47;;;;;;;9.48;100.00;100115.44;5225307;28;20029;-67
2023/03/31 01:11:30;;;;;;;9.00;2.30;;;;;;;9.51;100.00;100107.22;5223739;28;20021;-67
2023/03/31 01:14:03;;;;;;;13.07;2.28;;;;;;;9.49;100.00;100100.31;5227611;28;20033;-66
2023/03/31 01:16:34;;;;;;;11.82;2.80;;;;;;;9.50;100.00;100100.19;5225305;28;20026;-67
2023/03/31 01:19:16;;;;;;;11.90;2.28;;;;;;;9.53;100.00;100096.41;5224483;28;20593;-68
2023/03/31 01:21:52;;;;;;;12.55;2.38;;;;;;;9.56;100.00;100090.84;5227823;28;20086;-67
2023/03/31 01:25:10;;;;;;;12.88;3.50;;;;;;;9.53;100.00;100083.97;5227624;28;20038;-67
2023/03/31 01:28:11;;;;;;;12.23;2.67;;;;;;;9.53;100.00;100078.63;5224565;28;20033;-66
2023/03/31 01:31:01;;;;;;;10.38;2.53;;;;;;;9.54;100.00;100067.00;5223853;28;20029;-66
2023/03/31 01:33:55;;;;;;;13.57;2.50;;;;;;;9.56;100.00;100073.03;5224035;28;20420;-66
2023/03/31 01:36:57;;;;;;;9.85;2.40;;;;;;;9.55;100.00;100070.50;5227291;28;20048;-66
2023/03/31 01:39:50;;;;;;;11.35;2.20;;;;;;;9.55;100.00;100062.50;5223960;28;20057;-67
2023/03/31 01:42:36;;;;;;;11.57;2.60;;;;;;;9.54;100.00;100061.66;5226469;28;20111;-66
2023/03/31 01:45:19;;;;;;;10.15;2.72;;;;;;;9.54;100.00;100051.00;5224927;28;20044;-66
2023/03/31 01:48:07;;;;;;;10.52;2.38;;;;;;;9.54;100.00;100035.03;5226428;28;20037;-66
2023/03/31 01:50:56;;;;;;;12.30;2.78;;;;;;;9.60;100.00;100037.16;5225151;28;20049;-67
2023/03/31 01:53:35;;;;;;;16.05;3.30;;;;;;;9.62;100.00;100029.88;5232660;28;20037;-67
2023/03/31 01:56:17;;;;;;;14.73;3.40;;;;;;;9.57;100.00;100018.81;5237638;28;20048;-67
2023/03/31 01:58:52;;;;;;;12.32;3.10;;;;;;;9.59;100.00;100010.69;5224301;28;20037;-67
2023/03/31 02:01:45;;;;;;;12.18;2.60;;;;;;;9.61;100.00;100000.75;5233919;28;20049;-67
2023/03/31 02:04:24;;;;;;;10.25;2.78;;;;;;;9.56;100.00;99993.13;5232708;28;20112;-67
2023/03/31 02:07:03;;;;;;;9.32;1.98;;;;;;;9.54;100.00;99989.75;5235346;28;20532;-67
2023/03/31 02:09:41;;;;;;;13.50;2.70;;;;;;;9.57;100.00;99972.69;5234466;28;20427;-66
2023/03/31 02:12:15;;;;;;;11.75;2.35;;;;;;;9.52;100.00;99959.75;5236512;28;20018;-66
2023/03/31 02:14:51;;;;;;;15.88;2.63;;;;;;;9.54;100.00;99962.28;5228073;28;20083;-67
2023/03/31 02:17:31;;;;;;;13.70;2.65;;;;;;;9.56;100.00;99953.19;5227458;28;20112;-67
2023/03/31 02:20:10;;;;;;;12.75;3.10;;;;;;;9.51;100.00;99938.59;5227902;28;20040;-67
2023/03/31 02:22:47;;;;;;;16.88;3.15;;;;;;;9.52;100.00;99919.81;5232767;28;20030;-67
2023/03/31 02:25:23;;;;;;;14.48;3.17;;;;;;;9.60;100.00;99924.47;5229609;28;20076;-67
2023/03/31 02:27:59;;;;;;;10.93;2.83;;;;;;;9.55;100.00;99908.91;5232679;28;20820;-67
2023/03/31 02:30:59;;;;;;;12.15;2.72;;;;;;;9.54;100.00;99907.22;5234223;28;20434;-67
2023/03/31 02:33:31;;;;;;;14.43;3.45;;;;;;;9.54;100.00;99901.88;5220403;28;20499;-67
2023/03/31 02:36:03;;;;;;;9.93;3.28;;;;;;;9.59;100.00;99889.03;5230044;28;20035;-67
2023/03/31 02:38:58;;;;;;;11.90;3.05;;;;;;;9.57;100.00;99875.00;5234767;28;20110;-67
2023/03/31 02:41:29;;;;;;;;;;;;;;;9.58;100.00;99854.53;5234259;28;20476;-67
2023/03/31 02:44:00;;;;;;;10.35;2.95;;;;;;;9.66;100.00;99856.50;5233311;28;20326;-67
2023/03/31 02:46:32;;;;;;;15.52;2.95;;;;;;;9.56;100.00;99854.66;5232793;28;20037;-68
2023/03/31 02:49:07;;;;;;;17.67;3.15;;;;;;;9.55;100.00;99853.00;5236586;28;20067;-67
2023/03/31 02:52:00;;;;;;;14.82;3.20;;;;;;;9.55;100.00;99838.81;5232629;28;20468;-67
2023/03/31 02:54:46;;;;;;;16.80;4.18;;;;;;;9.53;100.00;99830.97;5228867;28;20041;-67
2023/03/31 02:57:42;;;;;;;14.60;3.47;;;;;;;9.52;100.00;99809.81;5231247;28;20037;-66
2023/03/31 03:00:29;;;;;;;14.10;3.47;;;;;;;9.51;100.00;99803.66;5232350;28;20585;-67
2023/03/31 03:03:45;;;;;;;16.10;3.83;;;;;;;9.54;100.00;99791.88;5229037;28;20061;-67
2023/03/31 03:06:26;;;;;;;16.45;3.50;;;;;;;9.52;100.00;99792.00;5221377;28;20041;-68
2023/03/31 03:09:24;;;;;;;18.70;3.85;;;;;;;9.54;100.00;99799.84;5234210;28;20099;-67
2023/03/31 03:11:59;;;;;;;14.85;4.13;;;;;;;9.51;100.00;99786.81;5230543;28;20515;-67
2023/03/31 03:14:56;;;;;;;14.50;3.55;;;;;;;9.51;100.00;99789.47;5232314;28;20064;-67
2023/03/31 03:17:34;;;;;;;14.82;3.30;;;;;;;9.52;100.00;99780.50;5222997;28;20086;-67
2023/03/31 03:20:08;;;;;;;16.95;3.42;;;;;;;9.51;100.00;99777.03;5228766;28;20415;-67
2023/03/31 03:22:39;;;;;;;15.60;3.10;;;;;;;9.50;100.00;99770.00;5229723;28;20379;-67
2023/03/31 03:25:13;;;;;;;17.77;3.53;;;;;;;9.49;100.00;99768.34;5233434;28;20037;-67
2023/03/31 03:27:44;;;;;;;16.08;3.17;;;;;;;9.56;100.00;99773.94;5233447;28;20037;-67
2023/03/31 03:30:16;;;;;;;14.27;2.95;;;;;;;9.49;100.00;99765.66;5222078;28;20426;-67
2023/03/31 03:32:47;;;;;;;14.10;3.15;;;;;;;9.51;100.00;99763.72;5230508;28;20056;-67
2023/03/31 03:35:19;;;;;;;14.50;3.22;;;;;;;9.51;100.00;99766.38;5235058;28;20366;-66
2023/03/31 03:37:50;;;;;;;16.98;2.83;;;;;;;9.49;100.00;99764.81;5228258;28;20089;-68
2023/03/31 03:40:22;;;;;;;14.48;3.10;;;;;;;9.48;100.00;99758.63;5228179;28;20029;-66
2023/03/31 03:42:53;;;;;;;14.88;3.13;;;;;;;9.48;100.00;99744.50;5228105;28;20108;-67
2023/03/31 03:45:24;;;;;;;16.17;3.00;;;;;;;9.49;100.00;99728.38;5227473;28;20583;-66
2023/03/31 03:47:56;;;;;;;16.60;3.60;;;;;;;9.51;100.00;99730.88;5230272;28;20032;-66
2023/03/31 03:50:27;;;;;;;15.07;2.80;;;;;;;9.45;100.00;99721.63;5232249;28;20041;-66
2023/03/31 03:52:59;;;;;;;11.15;2.55;;;;;;;9.43;100.00;99712.94;5229799;28;20068;-66
2023/03/31 03:55:30;;;;;;;14.23;3.03;;;;;;;9.42;100.00;99706.78;5228293;28;20028;-66
2023/03/31 03:58:02;;;;;;;16.77;2.63;;;;;;;9.40;100.00;99698.09;5233801;28;20033;-65
2023/03/31 04:00:33;;;;;;;13.05;2.67;;;;;;;9.40;100.00;99694.59;5217945;28;20049;-66
2023/03/31 04:03:05;;;;;;;16.80;2.70;;;;;;;9.37;100.00;99681.56;5228016;28;20110;-65
2023/03/31 04:05:36;;;;;;;11.15;2.80;;;;;;;9.35;100.00;99680.84;5231242;28;20021;-67
2023/03/31 04:08:07;;;;;;;13.60;3.40;;;;;;;9.33;100.00;99681.00;5232595;28;20048;-66
2023/03/31 04:10:47;;;;;;;13.80;2.58;;;;;;;9.35;100.00;99672.88;5223858;28;20052;-66
2023/03/31 04:13:19;;;;;;;15.25;2.35;;;;;;;9.31;100.00;99652.84;5227899;28;20055;-66
2023/03/31 04:15:50;;;;;;;13.55;2.40;;;;;;;9.31;100.00;99650.16;5231665;28;20038;-66
2023/03/31 04:18:22;;;;;;;12.77;2.78;;;;;;;9.34;100.00;99641.88;5231569;28;20098;-66
2023/03/31 04:21:05;;;;;;;15.15;2.45;;;;;;;9.27;100.00;99630.97;5234065;28;20034;-66
2023/03/31 04:23:45;;;;;;;12.05;2.50;;;;;;;9.31;100.00;99635.03;5229637;28;20033;-66
2023/03/31 04:26:17;;;;;;;14.85;2.72;;;;;;;9.26;100.00;99631.09;5232686;28;20112;-66
2023/03/31 04:28:49;;;;;;;12.25;2.70;;;;;;;9.30;100.00;99621.84;5228596;28;20040;-66
2023/03/31 04:31:24;;;;;;;12.93;2.40;;;;;;;9.28;100.00;99608.72;5231656;28;20653;-66
2023/03/31 04:34:01;;;;;;;12.75;2.72;;;;;;;9.22;100.00;99603.94;5232105;28;20128;-66
2023/03/31 04:36:32;;;;;;;9.00;2.15;;;;;;;9.28;100.00;99600.72;5222899;28;20113;-66
2023/03/31 04:39:04;;;;;;;14.65;2.90;;;;;;;9.26;100.00;99592.03;5228359;28;20720;-66
2023/03/31 04:41:35;;;;;;;13.50;2.05;;;;;;;9.24;100.00;99580.66;5228700;28;20041;-66
2023/03/31 04:44:07;;;;;;;9.02;1.98;;;;;;;9.23;100.00;99579.84;5224879;28;20408;-66
2023/03/31 04:46:38;;;;;;;13.23;2.50;;;;;;;9.22;100.00;99577.31;5225386;28;20472;-66
2023/03/31 04:49:10;;;;;;;10.98;2.40;;;;;;;9.23;100.00;99573.69;5232910;28;20609;-66
2023/03/31 04:51:41;;;;;;;12.43;2.05;;;;;;;9.23;100.00;99563.88;5231153;28;20475;-66
2023/03/31 04:54:12;;;;;;;9.95;2.00;;;;;;;9.27;100.00;99553.78;5232053;28;20484;-66
2023/03/31 04:56:45;;;;;;;9.27;2.13;;;;;;;9.29;100.00;99557.16;5226939;28;20383;-66
2023/03/31 04:59:16;;;;;;;10.25;2.25;;;;;;;9.21;100.00;99557.84;5228225;28;20037;-66
2023/03/31 05:01:48;;;;;;;12.93;2.50;;;;;;;9.24;100.00;99556.72;5228277;28;20026;-66
2023/03/31 05:04:19;;;;;;;9.07;1.95;;;;;;;9.22;100.00;99556.03;5230228;28;20072;-66
2023/03/31 05:06:51;;;;;;;12.32;3.05;;;;;;;9.20;100.00;99542.03;5225898;28;20030;-66
2023/03/31 05:09:22;;;;;;;11.13;2.08;;;;;;;9.20;100.00;99542.88;5224511;28;20041;-66
2023/03/31 05:11:54;;;;;;;13.35;2.28;;;;;;;9.14;100.00;99524.78;5226641;28;20026;-66
2023/03/31 05:14:25;;;;;;;12.55;2.33;;;;;;;9.18;100.00;99528.84;5235362;28;20033;-66
2023/03/31 05:16:57;;;;;;;12.15;2.92;;;;;;;9.18;100.00;99515.53;5227029;28;20033;-66
2023/03/31 05:19:29;;;;;;;11.50;2.10;;;;;;;9.12;100.00;99513.44;5227451;28;20060;-66
2023/03/31 05:22:00;;;;;;;10.18;2.05;;;;;;;9.11;100.00;99500.28;5227738;28;20500;-66
2023/03/31 05:24:31;;;;;;;10.70;2.55;;;;;;;9.17;100.00;99513.03;5228168;28;20515;-66
2023/03/31 05:27:03;;;;;;;8.52;2.20;;;;;;;9.12;100.00;99500.16;5230261;28;20067;-66
2023/03/31 05:29:34;;;;;;;10.35;2.25;;;;;;;9.12;100.00;99492.16;5231270;28;20112;-65
2023/03/31 05:32:05;;;;;;;8.98;2.08;;;;;;;9.15;100.00;99480.41;5226051;28;20037;-65
2023/03/31 05:34:37;;;;;;;11.10;2.10;;;;;;;9.10;100.00;99494.13;5230389;28;20399;-66
2023/03/31 05:37:08;;;;;;;10.20;2.50;;;;;;;9.07;100.00;99485.59;5231557;28;20031;-66
2023/03/31 05:39:40;;;;;;;13.07;3.05;;;;;;;9.11;100.00;99482.53;5230218;28;20442;-66
2023/03/31 05:42:11;;;;;;;8.73;2.03;;;;;;;9.11;100.00;99479.00;5227972;28;20037;-66
2023/03/31 05:44:43;;;;;;;13.55;2.60;;;;;;;9.10;100.00;99480.81;5229807;28;20026;-66
2023/03/31 05:47:14;;;;;;;12.20;2.67;;;;;;;9.12;100.00;99481.53;5232068;28;20046;-66
2023/03/31 05:49:46;;;;;;;8.13;2.20;;;;;;;9.11;100.00;99479.00;5232826;28;20056;-66
2023/03/31 05:52:17;;;;;;;10.27;2.38;;;;;;;9.15;100.00;99475.94;5230079;28;20041;-65
2023/03/31 05:54:49;;;;;;;8.57;2.15;;;;;;;9.07;100.00;99464.31;5232005;28;20052;-66
2023/03/31 05:57:20;;;;;;;10.57;2.03;;;;;;;9.09;100.00;99467.66;5229611;28;20068;-65
2023/03/31 05:59:52;;;;;;;9.13;3.03;;;;;;;9.07;100.00;99469.63;5231006;28;20554;-65
2023/03/31 06:02:24;;;;;;;8.35;2.10;;;;;;;9.09;100.00;99460.53;5231392;28;20093;-66
2023/03/31 06:04:55;;;;;;;12.70;3.08;;;;;;;9.12;100.00;99467.38;5230247;28;20045;-66
2023/03/31 06:07:26;;;;;;;7.95;2.10;;;;;;;9.05;100.00;99451.16;5229239;28;20736;-65
2023/03/31 06:09:58;;;;;;;9.95;2.17;;;;;;;9.03;100.00;99445.97;5226744;28;20037;-66
2023/03/31 06:12:31;;;;;;;12.25;2.97;;;;;;;9.02;100.00;99432.81;5228973;28;20029;-66
2023/03/31 06:15:03;;;;;;;11.93;2.65;;;;;;;9.01;100.00;99420.47;5229383;28;20368;-65
2023/03/31 06:17:34;;;;;;;11.55;2.30;;;;;;;9.02;100.00;99415.03;5227729;28;20032;-66
2023/03/31 06:20:06;;;;;;;12.40;2.70;;;;;;;9.03;100.00;99418.50;5225158;28;20041;-66
2023/03/31 06:22:37;;;;;;;9.55;2.72;;;;;;;9.04;100.00;99420.19;5228571;28;20413;-65
2023/03/31 06:25:09;;;;;;;9.80;2.72;;;;;;;9.02;100.00;99411.53;5232924;28;20040;-65
2023/03/31 06:27:40;;;;;;;10.82;3.40;;;;;;;9.03;100.00;99414.06;5229605;28;20042;-65
2023/03/31 06:30:12;;;;;;;8.40;2.88;;;;;;;9.07;100.00;99403.97;5224963;28;20033;-65
2023/03/31 06:32:44;;;;;;;8.93;2.65;;;;;;;9.05;100.00;99415.72;5227955;28;20063;-65
2023/03/31 06:35:15;;;;;;;11.55;3.22;;;;;;;9.03;100.00;99445.13;5231519;28;20145;-65
2023/03/31 06:37:47;;;;;;;10.98;2.58;;;;;;;8.98;100.00;99428.75;5230976;28;20037;-63
2023/03/31 06:40:18;;;;;;;11.18;2.60;;;;;;;8.98;100.00;99407.47;5228039;28;20028;-63
2023/03/31 06:42:50;;;;;;;69.95;7.75;;;;;;;9.03;100.00;99419.38;5225927;28;20470;-63
2023/03/31 06:45:21;;;;;;;89.65;10.35;;;;;;;9.14;100.00;99410.38;5227971;28;20295;-63
2023/03/31 06:47:52;;;;;;;14.18;3.28;;;;;;;9.07;100.00;99417.28;5227654;28;20072;-63
2023/03/31 06:50:24;;;;;;;14.20;3.47;;;;;;;9.07;100.00;99427.06;5231872;28;20482;-65
2023/03/31 06:52:55;;;;;;;17.02;4.00;;;;;;;9.09;100.00;99417.09;5228651;28;20415;-65
2023/03/31 06:55:27;;;;;;;16.27;3.85;;;;;;;9.09;100.00;99406.47;5227690;28;20719;-65
2023/03/31 06:57:59;;;;;;;14.80;6.28;;;;;;;9.11;100.00;99413.34;5231310;28;20037;-65
2023/03/31 07:00:31;;;;;;;19.23;4.10;;;;;;;9.13;100.00;99416.69;5230807;28;20125;-65
2023/03/31 07:03:03;;;;;;;15.50;3.70;;;;;;;9.17;100.00;99410.09;5228139;28;20436;-65
2023/03/31 07:05:35;;;;;;;25.02;4.97;;;;;;;9.15;100.00;99416.56;5225042;28;20458;-66
2023/03/31 07:08:06;;;;;;;16.13;4.75;;;;;;;9.16;100.00;99421.72;5226855;28;20033;-66
2023/03/31 07:10:37;;;;;;;14.90;4.20;;;;;;;9.17;100.00;99426.06;5228754;28;20575;-66
2023/03/31 07:13:09;;;;;;;18.60;4.30;;;;;;;9.18;100.00;99405.59;5227284;28;20033;-66
2023/03/31 07:15:41;;;;;;;23.40;4.90;;;;;;;9.19;100.00;99394.81;5227398;28;20042;-66
2023/03/31 07:18:14;;;;;;;21.92;4.40;;;;;;;9.28;100.00;99392.28;5223194;28;20038;-66
2023/03/31 07:20:49;;;;;;;17.20;4.28;;;;;;;9.23;100.00;99390.06;5224580;28;20033;-65
2023/03/31 07:23:20;;;;;;;15.18;3.55;;;;;;;9.26;100.00;99388.91;5227478;28;20037;-65
2023/03/31 07:25:52;;;;;;;15.75;4.10;;;;;;;9.26;100.00;99384.44;5224685;28;20407;-65
2023/03/31 07:28:23;;;;;;;17.88;4.45;;;;;;;9.26;100.00;99378.28;5227719;28;20065;-65
2023/03/31 07:30:54;;;;;;;11.50;3.03;;;;;;;9.29;100.00;99385.97;5226569;28;20091;-66
2023/03/31 07:33:26;;;;;;;13.23;2.88;;;;;;;9.26;100.00;99387.09;5227909;28;20026;-66
2023/03/31 07:35:57;;;;;;;10.85;2.50;;;;;;;9.27;100.00;99372.81;5225537;28;20060;-66
2023/03/31 07:38:28;;;;;;;14.18;2.92;;;;;;;9.25;100.00;99374.78;5224403;28;20384;-66
2023/03/31 07:41:00;;;;;;;12.27;2.75;;;;;;;9.26;100.00;99381.75;5226683;28;20025;-66
2023/03/31 07:43:31;;;;;;;11.38;2.80;;;;;;;9.32;100.00;99377.69;5223864;28;20136;-66
2023/03/31 07:46:04;;;;;;;10.15;3.03;;;;;;;9.34;100.00;99384.56;5226530;28;20044;-66
2023/03/31 07:48:35;;;;;;;15.43;3.33;;;;;;;9.39;100.00;99374.28;5224586;28;20033;-66
2023/03/31 07:51:06;;;;;;;16.08;3.67;;;;;;;9.45;100.00;99378.19;5226114;28;20091;-67
2023/03/31 07:53:38;;;;;;;18.83;4.18;;;;;;;9.54;100.00;99374.66;5228847;28;20471;-66
2023/03/31 07:56:09;;;;;;;17.83;4.50;;;;;;;9.59;100.00;99366.25;5229289;28;20112;-66
2023/03/31 07:58:41;;;;;;;24.73;5.10;;;;;;;9.66;100.00;99372.63;5226000;28;21064;-66
2023/03/31 08:01:20;;;;;;;24.70;5.18;;;;;;;9.71;100.00;99370.38;5224136;28;20104;-66
2023/03/31 08:03:54;;;;;;;24.05;5.22;;;;;;;9.75;100.00;99360.25;5228420;28;20044;-67
2023/03/31 08:06:26;;;;;;;18.10;4.68;;;;;;;9.85;100.00;99361.03;5226292;28;20052;-66
2023/03/31 08:08:58;;;;;;;22.33;4.63;;;;;;;9.89;100.00;99354.41;5227083;28;20072;-67
2023/03/31 08:11:29;;;;;;;28.27;6.13;;;;;;;9.90;100.00;99348.13;5230134;28;20108;-66
2023/03/31 08:14:01;;;;;;;24.20;5.05;;;;;;;10.05;100.00;99356.44;5227925;28;20652;-67
2023/03/31 08:16:32;;;;;;;26.27;5.63;;;;;;;10.06;100.00;99350.09;5228380;28;20025;-66
2023/03/31 08:19:03;;;;;;;19.02;4.88;;;;;;;10.13;100.00;99347.69;5226153;28;20426;-66
2023/03/31 08:21:35;;;;;;;29.70;5.82;;;;;;;10.19;100.00;99347.06;5226260;28;20379;-66
2023/03/31 08:24:06;;;;;;;25.60;6.25;;;;;;;10.31;100.00;99351.22;5226443;28;20566;-67
2023/03/31 08:26:40;;;;;;;25.50;5.45;;;;;;;10.34;100.00;99347.41;5226667;28;20025;-66
2023/03/31 08:29:11;;;;;;;20.10;5.40;;;;;;;10.52;100.00;99342.91;5228050;28;20527;-67
2023/03/31 08:31:42;;;;;;;24.80;5.93;;;;;;;10.49;100.00;99347.69;5229471;28;20108;-66
2023/03/31 08:34:14;;;;;;;21.95;5.50;;;;;;;10.56;100.00;99346.94;5224993;28;20460;-67
2023/03/31 08:36:46;;;;;;;27.83;5.93;;;;;;;10.59;100.00;99345.78;5228067;28;20033;-66
2023/03/31 08:39:17;;;;;;;26.40;5.95;;;;;;;10.60;100.00;99352.78;5228235;28;20033;-66
2023/03/31 08:41:57;;;;;;;25.88;5.35;;;;;;;10.62;100.00;99357.97;5229189;28;20124;-66
2023/03/31 08:44:43;;;;;;;20.95;5.85;;;;;;;10.64;100.00;99340.81;5227872;28;20126;-70
2023/03/31 08:47:19;;;;;;;31.02;5.95;;;;;;;10.61;100.00;99342.97;5227209;28;20408;-66
2023/03/31 08:49:55;;;;;;;28.33;6.05;;;;;;;10.57;100.00;99353.13;5227784;28;20578;-66
2023/03/31 08:52:42;;;;;;;25.75;5.35;;;;;;;10.61;100.00;99333.16;5229612;28;20053;-66
2023/03/31 08:55:26;;;;;;;30.23;6.00;;;;;;;10.63;100.00;99344.50;5225178;28;20311;-66
2023/03/31 08:58:19;;;;;;;21.85;5.03;;;;;;;10.65;100.00;99336.34;5219453;28;20439;-66
2023/03/31 09:01:00;;;;;;;26.48;5.78;;;;;;;10.66;100.00;99341.53;5229354;28;20145;-64
2023/03/31 09:04:04;;;;;;;26.80;5.13;;;;;;;10.70;100.00;99339.34;5226375;28;20034;-64
2023/03/31 09:06:41;;;;;;;26.45;5.90;;;;;;;10.77;100.00;99346.59;5227824;28;20314;-64
2023/03/31 09:09:47;;;;;;;20.60;4.50;;;;;;;10.82;100.00;99337.31;5230274;28;20491;-67
2023/03/31 09:12:41;;;;;;;26.95;5.00;;;;;;;10.96;100.00;99328.72;5234180;28;20489;-66
2023/03/31 09:15:45;;;;;;;23.65;4.47;;;;;;;10.90;100.00;99324.84;5231863;28;20045;-66
2023/03/31 09:18:35;;;;;;;24.60;4.72;;;;;;;10.93;100.00;99331.69;5226353;28;20719;-66
2023/03/31 09:21:16;;;;;;;22.95;4.55;;;;;;;10.95;100.00;99330.56;5229329;28;20410;-66
2023/03/31 09:23:58;;;;;;;20.40;4.55;;;;;;;10.94;100.00;99326.19;5230799;28;20464;-66
2023/03/31 09:26:52;;;;;;;22.00;4.13;;;;;;;10.96;100.00;99318.03;5232262;28;20521;-66
2023/03/31 09:29:46;;;;;;;22.25;4.63;;;;;;;10.96;100.00;99320.72;5229750;28;20033;-66
2023/03/31 09:32:25;;;;;;;24.92;4.55;;;;;;;10.94;100.00;99312.03;5230538;28;20087;-66
2023/03/31 09:35:11;;;;;;;22.20;4.85;;;;;;;10.92;100.00;99311.34;5231708;28;20072;-66
2023/03/31 09:37:42;;;;;;;19.98;4.18;;;;;;;10.88;100.00;99308.16;5228659;28;20075;-66
2023/03/31 09:40:23;;;;;;;20.42;5.10;;;;;;;10.95;100.00;99305.72;5229179;28;20554;-66
2023/03/31 09:43:21;;;;;;;21.92;4.80;;;;;;;11.02;100.00;99309.41;5227279;28;20030;-66
2023/03/31 09:45:54;;;;;;;20.33;3.70;;;;;;;11.04;100.00;99301.22;5225897;28;20148;-66
2023/03/31 09:48:31;;;;;;;20.45;3.97;;;;;;;11.08;100.00;99300.75;5229526;28;20021;-66
2023/03/31 09:51:13;;;;;;;18.80;4.10;;;;;;;11.14;100.00;99294.78;5232618;28;20027;-66
2023/03/31 09:53:55;;;;;;;16.90;4.47;;;;;;;11.16;100.00;99303.47;5226412;28;20045;-66
2023/03/31 09:56:43;;;;;;;18.48;3.70;;;;;;;11.23;100.00;99287.66;5230392;28;20036;-66
2023/03/31 09:59:18;;;;;;;17.23;4.03;;;;;;;11.27;100.00;99277.50;5226208;28;20052;-66
2023/03/31 10:01:52;;;;;;;17.90;4.22;;;;;;;11.28;100.00;99282.66;5229502;28;20033;-66
2023/03/31 10:04:30;;;;;;;16.65;3.50;;;;;;;11.31;100.00;99289.50;5224188;28;21422;-66
2023/03/31 10:07:04;;;;;;;12.75;2.72;;;;;;;11.37;100.00;99265.69;5221117;28;20116;-67
2023/03/31 10:09:37;;;;;;;16.40;3.65;;;;;;;11.43;100.00;99279.38;5226210;28;20492;-66
2023/03/31 10:12:15;;;;;;;13.95;2.95;;;;;;;11.48;100.00;99259.19;5226513;28;20033;-66
2023/03/31 10:14:49;;;;;;;11.57;2.55;;;;;;;11.52;100.00;99270.41;5220598;28;20055;-66
2023/03/31 10:17:22;;;;;;;13.10;3.22;;;;;;;11.53;100.00;99261.41;5225358;28;20033;-66
2023/03/31 10:20:05;;;;;;;12.83;2.53;;;;;;;11.57;100.00;99266.25;5226139;28;20112;-66
2023/03/31 10:22:43;;;;;;;12.57;2.90;;;;;;;11.56;100.00;99256.56;5224590;28;20025;-66
2023/03/31 10:25:19;;;;;;;11.65;2.55;;;;;;;11.63;100.00;99253.25;5227968;28;20472;-66
2023/03/31 10:27:52;;;;;;;12.10;2.75;;;;;;;11.66;100.00;99250.22;5223492;28;20037;-66
2023/03/31 10:30:34;;;;;;;10.73;2.35;;;;;;;11.74;100.00;99245.75;5222547;28;20025;-66
2023/03/31 10:33:12;;;;;;;11.65;2.78;;;;;;;11.72;100.00;99236.22;5227035;28;20053;-66
2023/03/31 10:35:47;;;;;;;13.65;3.30;;;;;;;11.76;100.00;99229.56;5224743;28;20118;-66
2023/03/31 10:38:46;;;;;;;19.35;3.40;;;;;;;11.76;100.00;99242.91;5224447;28;20502;-66
2023/03/31 10:41:24;;;;;;;11.90;2.95;;;;;;;11.71;100.00;99242.56;5224503;28;20060;-66
2023/03/31 10:44:02;;;;;;;10.93;2.70;;;;;;;11.74;100.00;99242.25;5224613;28;20029;-66
2023/03/31 10:46:47;;;;;;;13.05;3.15;;;;;;;11.73;100.00;99232.53;5221915;28;20387;-66
2023/03/31 10:49:21;;;;;;;12.40;2.95;;;;;;;11.77;100.00;99225.88;5222904;28;20033;-66
2023/03/31 10:51:56;;;;;;;14.27;2.85;;;;;;;11.81;100.00;99216.50;5221841;28;20031;-66
2023/03/31 10:54:27;;;;;;;10.25;2.50;;;;;;;11.85;100.00;99215.22;5220928;28;20480;-66
2023/03/31 10:57:05;;;;;;;12.70;3.10;;;;;;;11.94;100.00;99198.19;5225278;28;20021;-66
2023/03/31 10:59:50;;;;;;;12.90;3.13;;;;;;;12.02;100.00;99212.56;5222324;28;20054;-66
2023/03/31 11:02:51;;;;;;;13.32;2.47;;;;;;;11.98;100.00;99216.56;5224835;28;20029;-66
2023/03/31 11:05:35;;;;;;;18.70;3.10;;;;;;;11.93;100.00;99217.91;5226057;28;20491;-66
2023/03/31 11:08:50;;;;;;;13.70;2.80;;;;;;;11.90;100.00;99210.22;5226317;28;20033;-66
2023/03/31 11:11:51;;;;;;;15.77;3.70;;;;;;;11.83;100.00;99219.88;5201014;28;20476;-66
2023/03/31 11:14:45;;;;;;;16.00;2.88;;;;;;;11.76;100.00;99211.69;5219376;28;20040;-67
2023/03/31 11:17:28;;;;;;;15.07;3.35;;;;;;;11.72;100.00;99218.34;5220649;28;20041;-67
2023/03/31 11:20:11;;;;;;;15.70;3.03;;;;;;;11.81;100.00;99213.84;5220221;28;20064;-66
2023/03/31 11:22:54;;;;;;;15.80;3.00;;;;;;;11.89;100.00;99216.56;5225425;28;20037;-66
2023/03/31 11:26:05;;;;;;;13.90;2.80;;;;;;;11.96;100.00;99204.19;5230938;28;20118;-66
2023/03/31 11:28:42;;;;;;;12.38;3.50;;;;;;;12.00;100.00;99198.53;5223362;28;20483;-66
2023/03/31 11:31:40;;;;;;;15.75;3.42;;;;;;;12.06;100.00;99193.38;5228434;28;20034;-67
2023/03/31 11:34:20;;;;;;;16.35;3.33;;;;;;;12.15;100.00;99194.19;5228644;28;20060;-66
2023/03/31 11:36:57;;;;;;;17.08;4.28;;;;;;;12.17;100.00;99178.78;5224825;28;20037;-66
2023/03/31 11:39:46;;;;;;;18.48;3.67;;;;;;;12.21;100.00;99176.63;5227383;28;20025;-67
2023/03/31 11:42:26;;;;;;;14.38;2.78;;;;;;;12.19;100.00;99163.41;5225482;28;20491;-66
2023/03/31 11:45:03;;;;;;;14.75;3.40;;;;;;;12.14;100.00;99163.13;5225878;28;20468;-66
2023/03/31 11:47:40;;;;;;;16.90;3.55;;;;;;;12.13;100.00;99170.28;5229059;28;20450;-66
2023/03/31 11:50:25;;;;;;;11.95;2.83;;;;;;;12.10;100.00;99167.09;5224776;28;20052;-65
2023/03/31 11:53:01;;;;;;;;;;;;;;;12.19;100.00;99159.91;5230176;28;20032;-66
2023/03/31 11:55:34;;;;;;;12.25;3.00;;;;;;;12.17;100.00;99152.06;5227631;28;19968;-67
2023/03/31 11:58:35;;;;;;;12.27;2.70;;;;;;;12.25;100.00;99159.25;5228143;28;20029;-66
2023/03/31 12:01:32;;;;;;;10.43;2.33;;;;;;;12.35;100.00;99149.22;5230359;28;20053;-66
2023/03/31 12:04:18;;;;;;;14.00;2.65;;;;;;;12.40;100.00;99140.66;5228910;28;20032;-66
2023/03/31 12:06:51;;;;;;;10.77;2.00;;;;;;;12.46;100.00;99134.63;5224555;28;20029;-66
2023/03/31 12:09:33;;;;;;;11.52;2.63;;;;;;;12.49;100.00;99139.63;5227479;28;20430;-66